Time;durP1;ratioP1;P1;durP2;ratioP2;P2;SDS_P1;SDS_P2;PMS_P1;PMS_P2;Temp;Humidity;BMP_temperature;BMP_pressure;BME280_temperature;BME280_humidity;BME280_pressure;Samples;Min_cycle;Max_cycle;Signal;HPM_P1;HPM_P2
2022/05/12 00:00:44;;;;;;;7.75;2.22;;;20.40;63.00;;;;;;5039041;28;20098;-61
2022/05/12 00:03:12;;;;;;;7.50;2.28;;;20.40;63.00;;;;;;5039389;28;20047;-61
2022/05/12 00:05:37;;;;;;;10.45;2.40;;;20.40;63.10;;;;;;5034062;28;20037;-61
2022/05/12 00:08:03;;;;;;;7.38;1.98;;;20.40;63.10;;;;;;5038752;28;20036;-61
2022/05/12 00:10:29;;;;;;;8.35;1.90;;;20.40;63.20;;;;;;5038425;28;20025;-61
2022/05/12 00:12:56;;;;;;;10.02;2.13;;;20.40;63.20;;;;;;5037364;28;20014;-61
2022/05/12 00:15:24;;;;;;;8.30;2.10;;;20.40;63.20;;;;;;5039520;28;20444;-61
2022/05/12 00:17:50;;;;;;;8.63;2.22;;;20.30;63.20;;;;;;5039019;28;20109;-61
2022/05/12 00:20:18;;;;;;;8.65;1.92;;;20.30;63.20;;;;;;5039010;28;20465;-61
2022/05/12 00:22:44;;;;;;;7.28;1.73;;;20.30;63.20;;;;;;5038016;28;20022;-61
2022/05/12 00:25:17;;;;;;;7.03;2.10;;;20.30;63.30;;;;;;5037582;28;20412;-61
2022/05/12 00:27:43;;;;;;;6.82;2.00;;;20.30;63.40;;;;;;5042338;28;20026;-61
2022/05/12 00:30:09;;;;;;;7.53;2.08;;;20.30;63.40;;;;;;5043681;28;20508;-61
2022/05/12 00:32:43;;;;;;;8.55;2.00;;;20.30;63.50;;;;;;5041931;28;20021;-61
2022/05/12 00:35:09;;;;;;;7.25;2.00;;;20.30;63.50;;;;;;5037457;28;20049;-61
2022/05/12 00:37:35;;;;;;;7.65;1.90;;;20.20;63.50;;;;;;5040956;28;20079;-61
2022/05/12 00:40:00;;;;;;;7.32;2.10;;;20.20;63.50;;;;;;5039155;28;20502;-61
2022/05/12 00:42:26;;;;;;;6.13;1.92;;;20.20;63.50;;;;;;5036243;28;20017;-61
2022/05/12 00:44:52;;;;;;;8.25;2.40;;;20.20;63.60;;;;;;5035317;28;20106;-61
2022/05/12 00:47:18;;;;;;;7.68;2.00;;;20.20;63.60;;;;;;5036448;28;20107;-61
2022/05/12 00:49:43;;;;;;;6.88;2.00;;;20.20;64.70;;;;;;5035503;28;20499;-61
2022/05/12 00:52:14;;;;;;;8.27;1.90;;;20.20;63.50;;;;;;5033112;28;20036;-61
2022/05/12 00:54:45;;;;;;;8.32;2.42;;;20.20;63.70;;;;;;5034133;28;20048;-61
2022/05/12 00:57:12;;;;;;;6.82;1.90;;;20.20;63.70;;;;;;5040982;28;20045;-61
2022/05/12 00:59:38;;;;;;;5.97;1.80;;;20.20;63.60;;;;;;5041960;28;20021;-61
2022/05/12 01:02:05;;;;;;;6.15;1.95;;;20.20;63.70;;;;;;5032681;28;20037;-61
2022/05/12 01:04:31;;;;;;;9.43;2.13;;;20.10;63.70;;;;;;5030116;28;20177;-61
2022/05/12 01:06:56;;;;;;;6.57;2.10;;;20.10;63.80;;;;;;5040229;28;20293;-60
2022/05/12 01:09:22;;;;;;;5.68;1.70;;;20.10;63.80;;;;;;5037419;28;20121;-61
2022/05/12 01:11:48;;;;;;;6.28;2.03;;;20.10;63.70;;;;;;5035290;28;20036;-61
2022/05/12 01:14:14;;;;;;;5.47;1.60;;;20.10;63.80;;;;;;5034400;28;20036;-61
2022/05/12 01:16:43;;;;;;;4.95;1.77;;;20.10;63.90;;;;;;5036726;28;20565;-61
2022/05/12 01:19:13;;;;;;;7.25;1.85;;;20.10;63.80;;;;;;5037072;28;20048;-61
2022/05/12 01:21:39;;;;;;;6.03;1.60;;;20.00;63.90;;;;;;5038261;28;20032;-61
2022/05/12 01:24:05;;;;;;;6.10;1.70;;;20.00;63.80;;;;;;5032875;28;20037;-61
2022/05/12 01:26:31;;;;;;;7.68;1.73;;;20.10;63.90;;;;;;5036868;28;20458;-61
2022/05/12 01:28:57;;;;;;;7.55;2.00;;;20.00;63.80;;;;;;5035243;28;20055;-61
2022/05/12 01:31:22;;;;;;;6.10;1.75;;;20.00;64.00;;;;;;5038682;28;20036;-61
2022/05/12 01:33:48;;;;;;;8.02;2.05;;;20.00;63.90;;;;;;5032854;28;20165;-61
2022/05/12 01:36:14;;;;;;;6.05;1.77;;;20.00;63.90;;;;;;5037920;28;20124;-61
2022/05/12 01:38:40;;;;;;;6.95;1.98;;;20.00;64.00;;;;;;5035353;28;20079;-61
2022/05/12 01:41:05;;;;;;;6.55;1.80;;;20.00;63.90;;;;;;5036030;28;20091;-61
2022/05/12 01:43:31;;;;;;;4.22;1.67;;;20.00;64.00;;;;;;5038546;28;20025;-61
2022/05/12 01:45:59;;;;;;;4.78;1.60;;;20.00;64.00;;;;;;4988452;28;1353969;-61
2022/05/12 01:48:25;;;;;;;7.35;1.70;;;20.00;64.10;;;;;;5035853;28;20125;-61
2022/05/12 01:50:52;;;;;;;6.13;1.98;;;20.00;64.00;;;;;;5034610;28;20100;-61
2022/05/12 01:53:17;;;;;;;6.18;1.80;;;19.90;64.00;;;;;;5038423;28;20049;-61
2022/05/12 01:55:43;;;;;;;6.43;1.67;;;19.90;64.10;;;;;;5037441;28;20172;-61
2022/05/12 01:58:09;;;;;;;7.32;1.90;;;19.90;64.10;;;;;;5032033;28;20553;-61
2022/05/12 02:00:35;;;;;;;5.10;1.60;;;19.90;64.10;;;;;;5041696;28;20108;-61
2022/05/12 02:03:01;;;;;;;7.07;1.70;;;19.90;64.10;;;;;;5034880;28;20409;-61
2022/05/12 02:05:30;;;;;;;5.15;1.60;;;19.90;64.10;;;;;;5034987;28;20037;-61
2022/05/12 02:07:56;;;;;;;7.30;1.80;;;19.90;64.10;;;;;;5040540;28;20124;-61
2022/05/12 02:10:24;;;;;;;5.63;1.75;;;19.80;64.00;;;;;;5036985;28;20565;-61
2022/05/12 02:12:49;;;;;;;4.07;1.60;;;19.90;64.20;;;;;;5040090;28;20119;-61
2022/05/12 02:15:15;;;;;;;4.80;1.67;;;19.80;64.10;;;;;;5032142;28;20037;-61
2022/05/12 02:17:41;;;;;;;5.63;1.60;;;19.80;64.10;;;;;;5036135;28;20009;-61
2022/05/12 02:20:07;;;;;;;6.82;1.77;;;19.80;64.20;;;;;;5038941;28;20072;-61
2022/05/12 02:22:33;;;;;;;5.40;1.60;;;19.80;64.10;;;;;;5038904;28;20021;-61
2022/05/12 02:24:58;;;;;;;5.38;1.85;;;19.80;64.20;;;;;;5036769;28;20028;-61
2022/05/12 02:27:24;;;;;;;5.57;1.60;;;19.80;64.10;;;;;;5035915;28;20025;-61
2022/05/12 02:29:49;;;;;;;6.47;1.80;;;19.80;64.10;;;;;;5032201;28;20029;-61
2022/05/12 02:32:15;;;;;;;4.85;1.70;;;19.80;64.10;;;;;;5034860;28;20029;-61
2022/05/12 02:34:41;;;;;;;5.20;1.52;;;19.80;64.10;;;;;;5040135;28;20021;-61
2022/05/12 02:37:08;;;;;;;6.50;1.88;;;19.80;64.20;;;;;;5040597;28;20036;-61
2022/05/12 02:39:40;;;;;;;4.85;1.50;;;19.80;64.10;;;;;;5035352;28;20025;-61
2022/05/12 02:42:06;;;;;;;4.32;1.70;;;19.80;64.20;;;;;;5039606;28;20059;-61
2022/05/12 02:44:32;;;;;;;6.03;1.70;;;19.70;64.10;;;;;;5034953;28;20049;-61
2022/05/12 02:46:58;;;;;;;4.57;1.63;;;19.70;64.20;;;;;;5037572;28;20434;-61
2022/05/12 02:49:24;;;;;;;5.85;1.58;;;19.70;64.20;;;;;;5032844;28;20025;-61
2022/05/12 02:51:49;;;;;;;7.38;1.98;;;19.70;64.20;;;;;;5035597;28;20035;-61
2022/05/12 02:54:16;;;;;;;6.25;1.90;;;19.70;64.20;;;;;;5032520;28;20489;-61
2022/05/12 02:56:42;;;;;;;5.32;1.60;;;19.70;64.20;;;;;;5037661;28;20080;-61
2022/05/12 02:59:08;;;;;;;5.30;1.75;;;19.70;64.20;;;;;;5034792;28;20029;-61
2022/05/12 03:01:33;;;;;;;4.90;1.70;;;19.70;64.20;;;;;;5035898;28;20029;-60
2022/05/12 03:03:59;;;;;;;5.32;1.67;;;19.70;64.20;;;;;;5037449;28;20071;-61
2022/05/12 03:06:25;;;;;;;5.60;1.60;;;19.70;64.20;;;;;;5032125;28;20116;-61
2022/05/12 03:08:51;;;;;;;5.60;1.50;;;19.60;64.30;;;;;;5037666;28;20021;-61
2022/05/12 03:11:16;;;;;;;6.40;1.80;;;19.60;65.30;;;;;;5039243;28;20052;-61
2022/05/12 03:13:42;;;;;;;4.72;1.60;;;19.60;64.30;;;;;;5043737;28;20021;-61
2022/05/12 03:16:08;;;;;;;5.85;1.52;;;19.60;64.20;;;;;;5037439;28;20118;-61
2022/05/12 03:18:33;;;;;;;4.85;1.55;;;19.60;64.20;;;;;;5039533;28;20033;-61
2022/05/12 03:20:59;;;;;;;5.82;1.70;;;19.60;64.10;;;;;;5038948;28;20640;-61
2022/05/12 03:23:25;;;;;;;4.85;1.52;;;19.60;64.20;;;;;;5036484;28;20020;-61
2022/05/12 03:25:52;;;;;;;4.53;1.42;;;19.60;64.10;;;;;;5032672;28;20036;-61
2022/05/12 03:28:17;;;;;;;6.35;1.60;;;19.60;64.20;;;;;;5035614;28;20393;-61
2022/05/12 03:30:43;;;;;;;4.90;1.50;;;19.60;64.20;;;;;;5035910;28;20025;-61
2022/05/12 03:33:11;;;;;;;5.90;1.60;;;19.60;64.10;;;;;;5030492;28;23331;-61
2022/05/12 03:35:37;;;;;;;5.30;1.70;;;19.50;64.20;;;;;;5034564;28;20033;-61
2022/05/12 03:38:04;;;;;;;6.78;1.67;;;19.60;64.20;;;;;;5038802;28;20358;-61
2022/05/12 03:40:30;;;;;;;6.28;1.60;;;19.50;64.10;;;;;;5031766;28;20032;-61
2022/05/12 03:42:58;;;;;;;3.67;1.55;;;19.50;64.10;;;;;;5030706;28;20067;-61
2022/05/12 03:45:25;;;;;;;2.85;1.20;;;19.50;64.10;;;;;;5033794;28;20547;-61
2022/05/12 03:47:55;;;;;;;4.35;1.60;;;19.50;64.10;;;;;;5037966;28;20032;-61
2022/05/12 03:50:22;;;;;;;4.55;1.55;;;19.50;64.20;;;;;;5038026;28;20541;-61
2022/05/12 03:52:48;;;;;;;3.60;1.40;;;19.50;64.00;;;;;;5039059;28;20028;-61
2022/05/12 03:55:16;;;;;;;5.63;1.80;;;19.50;64.10;;;;;;5033766;28;20068;-61
2022/05/12 03:57:42;;;;;;;4.60;1.70;;;19.50;64.10;;;;;;5036830;28;20548;-61
2022/05/12 04:00:09;;;;;;;6.03;1.63;;;19.50;64.30;;;;;;5037461;28;20021;-61
2022/05/12 04:02:34;;;;;;;4.43;1.50;;;19.50;64.40;;;;;;5038695;28;20502;-61
2022/05/12 04:05:00;;;;;;;4.97;1.50;;;19.50;64.40;;;;;;5033076;28;20055;-61
2022/05/12 04:07:26;;;;;;;6.05;1.98;;;19.50;64.50;;;;;;5036077;28;20508;-61
2022/05/12 04:09:51;;;;;;;6.38;1.70;;;19.50;64.50;;;;;;5036959;28;20060;-61
2022/05/12 04:12:17;;;;;;;5.03;1.70;;;19.50;64.50;;;;;;5033778;28;20033;-61
2022/05/12 04:14:44;;;;;;;5.85;1.90;;;19.40;64.40;;;;;;5037121;28;20103;-61
2022/05/12 04:17:13;;;;;;;7.93;1.73;;;19.50;64.50;;;;;;5034594;28;20081;-61
2022/05/12 04:19:39;;;;;;;6.38;1.80;;;19.50;64.40;;;;;;5032591;28;20025;-61
2022/05/12 04:22:07;;;;;;;5.80;1.50;;;19.40;64.50;;;;;;5037635;28;20502;-61
2022/05/12 04:24:33;;;;;;;5.70;1.55;;;19.40;64.40;;;;;;5037747;28;20497;-61
2022/05/12 04:26:58;;;;;;;5.53;1.90;;;19.40;64.40;;;;;;5030967;28;20121;-61
2022/05/12 04:29:25;;;;;;;6.28;1.60;;;19.40;64.40;;;;;;5036172;28;20026;-61
2022/05/12 04:31:50;;;;;;;5.70;1.70;;;19.40;64.50;;;;;;5040488;28;20021;-61
2022/05/12 04:37:00;;;;;;;5.17;1.60;;;19.40;65.60;;;;;;5034693;28;20090;-61
2022/05/12 04:39:26;;;;;;;4.93;1.52;;;19.40;64.50;;;;;;5044401;28;20026;-61
2022/05/12 04:41:52;;;;;;;5.95;1.85;;;19.40;64.60;;;;;;5042019;28;20029;-61
2022/05/12 04:44:19;;;;;;;4.10;1.60;;;19.40;64.70;;;;;;5039607;28;20485;-61
2022/05/12 04:46:45;;;;;;;6.50;1.60;;;19.40;64.60;;;;;;5042910;28;20119;-61
2022/05/12 04:49:11;;;;;;;5.93;1.50;;;19.40;64.60;;;;;;5038866;28;20119;-61
2022/05/12 04:51:37;;;;;;;5.78;1.90;;;19.30;64.50;;;;;;5040684;28;20397;-61
2022/05/12 04:54:03;;;;;;;6.43;1.65;;;19.40;64.60;;;;;;5043602;28;20140;-61
2022/05/12 04:56:28;;;;;;;6.15;1.52;;;19.30;64.60;;;;;;5040853;28;20041;-61
2022/05/12 04:58:54;;;;;;;5.78;1.67;;;19.30;64.60;;;;;;5035409;28;20068;-61
2022/05/12 05:01:20;;;;;;;9.68;2.28;;;19.30;65.90;;;;;;5036668;28;20029;-62
2022/05/12 05:03:46;;;;;;;6.85;2.03;;;19.30;66.10;;;;;;5044664;28;20064;-62
2022/05/12 05:06:11;;;;;;;8.48;1.92;;;19.30;66.40;;;;;;5035829;28;20036;-62
2022/05/12 05:08:37;;;;;;;9.27;1.73;;;19.30;65.80;;;;;;5048153;28;20059;-62
2022/05/12 05:11:04;;;;;;;7.43;2.03;;;19.30;65.80;;;;;;5045995;28;20042;-62
2022/05/12 05:13:30;;;;;;;6.40;1.83;;;19.30;65.30;;;;;;5038072;28;20700;-62
2022/05/12 05:15:56;;;;;;;8.60;2.03;;;19.40;65.20;;;;;;5039446;28;20684;-62
2022/05/12 05:18:21;;;;;;;9.95;2.13;;;19.30;65.10;;;;;;5037100;28;20017;-62
2022/05/12 05:20:47;;;;;;;11.65;2.47;;;19.40;65.30;;;;;;5042127;28;20050;-58
2022/05/12 05:23:15;;;;;;;10.60;2.13;;;19.40;66.10;;;;;;5033678;28;20112;-58
2022/05/12 05:25:41;;;;;;;8.10;1.98;;;19.40;65.70;;;;;;5035701;28;20033;-58
2022/05/12 05:28:08;;;;;;;9.90;2.30;;;19.40;65.40;;;;;;5036513;28;20032;-59
2022/05/12 05:30:34;;;;;;;11.15;2.45;;;19.40;65.50;;;;;;5050032;28;20039;-58
2022/05/12 05:32:59;;;;;;;9.13;2.10;;;19.40;65.70;;;;;;5032565;28;20116;-58
2022/05/12 05:35:25;;;;;;;8.07;2.05;;;19.50;65.80;;;;;;5036754;28;20029;-59
2022/05/12 05:37:52;;;;;;;8.50;2.33;;;19.50;65.60;;;;;;5041639;28;20021;-59
2022/05/12 05:40:20;;;;;;;10.65;2.15;;;19.50;65.70;;;;;;5042802;28;20028;-59
2022/05/12 05:42:46;;;;;;;8.77;1.95;;;19.50;65.60;;;;;;5043463;28;20025;-59
2022/05/12 05:45:15;;;;;;;11.70;1.90;;;19.40;65.80;;;;;;5038311;28;20052;-59
2022/05/12 05:47:44;;;;;;;11.43;2.30;;;19.40;65.90;;;;;;5035839;28;20037;-59
2022/05/12 05:50:09;;;;;;;10.93;1.90;;;19.50;65.80;;;;;;5038063;28;20044;-59
2022/05/12 05:55:19;;;;;;;9.48;2.05;;;19.50;65.50;;;;;;5036106;28;20059;-61
2022/05/12 05:57:45;;;;;;;7.50;2.28;;;19.40;65.60;;;;;;5034926;28;20485;-61
2022/05/12 06:00:12;;;;;;;11.93;2.28;;;19.40;65.60;;;;;;5035759;28;20024;-61
2022/05/12 06:02:38;;;;;;;8.90;2.08;;;19.50;65.50;;;;;;5036405;28;20025;-61
2022/05/12 06:05:05;;;;;;;6.40;1.80;;;19.40;65.40;;;;;;5040417;28;20029;-61
2022/05/12 06:07:31;;;;;;;9.27;2.08;;;19.40;65.30;;;;;;5039454;28;20371;-61
2022/05/12 06:09:58;;;;;;;9.63;2.40;;;19.40;65.50;;;;;;5041463;28;20519;-61
2022/05/12 06:12:23;;;;;;;7.75;2.00;;;19.50;65.50;;;;;;5038840;28;20041;-61
2022/05/12 06:14:50;;;;;;;8.60;2.20;;;19.40;65.50;;;;;;5036237;28;20025;-61
2022/05/12 06:17:16;;;;;;;7.15;2.08;;;19.50;65.40;;;;;;5041092;28;20540;-61
2022/05/12 06:19:42;;;;;;;9.63;2.20;;;19.50;65.40;;;;;;5037459;28;20022;-61
2022/05/12 06:22:09;;;;;;;10.00;2.40;;;19.40;65.20;;;;;;5037349;28;20024;-61
2022/05/12 06:24:34;;;;;;;5.70;1.83;;;19.50;65.10;;;;;;5034224;28;20122;-61
2022/05/12 06:27:00;;;;;;;6.82;1.77;;;19.50;65.20;;;;;;5033331;28;20486;-61
2022/05/12 06:29:26;;;;;;;5.95;1.80;;;19.40;65.10;;;;;;5033942;28;20394;-61
2022/05/12 06:31:51;;;;;;;6.65;2.03;;;19.50;65.10;;;;;;5036193;28;20026;-61
2022/05/12 06:34:17;;;;;;;8.02;2.00;;;19.50;65.10;;;;;;5038074;28;20537;-61
2022/05/12 06:36:44;;;;;;;8.25;2.10;;;19.50;64.90;;;;;;5036546;28;20068;-61
2022/05/12 06:39:10;;;;;;;7.97;2.10;;;19.40;64.90;;;;;;5032670;28;20021;-61
2022/05/12 06:41:35;;;;;;;9.02;2.08;;;19.50;65.10;;;;;;5035037;28;20428;-60
2022/05/12 06:44:01;;;;;;;6.07;1.85;;;19.50;65.00;;;;;;5035177;28;20032;-60
2022/05/12 06:46:27;;;;;;;8.38;2.15;;;19.50;65.00;;;;;;5035582;28;20054;-61
2022/05/12 06:48:53;;;;;;;7.82;2.03;;;19.50;64.80;;;;;;5066049;28;20039;-61
2022/05/12 06:51:19;;;;;;;6.10;1.85;;;19.50;64.80;;;;;;5041173;28;20394;-61
2022/05/12 06:53:45;;;;;;;6.68;2.03;;;19.50;64.80;;;;;;5034792;28;20032;-61
2022/05/12 06:56:11;;;;;;;6.97;1.95;;;19.50;64.70;;;;;;5035991;28;20042;-61
2022/05/12 06:58:36;;;;;;;5.95;1.80;;;19.40;64.90;;;;;;5036251;28;20117;-61
2022/05/12 07:01:03;;;;;;;6.13;1.80;;;19.50;64.90;;;;;;5036575;28;20457;-61
2022/05/12 07:03:29;;;;;;;6.25;1.80;;;19.50;64.80;;;;;;5033168;28;20021;-61
2022/05/12 07:05:55;;;;;;;6.60;1.67;;;19.50;64.70;;;;;;5033651;28;20056;-61
2022/05/12 07:08:20;;;;;;;6.40;1.80;;;19.50;64.80;;;;;;5040505;28;20482;-60
2022/05/12 07:10:46;;;;;;;5.60;1.65;;;19.50;64.60;;;;;;5036147;28;20057;-61
2022/05/12 07:13:19;;;;;;;6.57;1.70;;;19.50;64.60;;;;;;5035585;28;20020;-61
2022/05/12 07:15:47;;;;;;;5.55;1.77;;;19.50;64.60;;;;;;5035408;28;20036;-61
2022/05/12 07:18:14;;;;;;;7.60;2.10;;;19.50;64.50;;;;;;5032296;28;20029;-61
2022/05/12 07:28:52;;;;;;;6.18;1.67;;;19.50;64.40;;;;;;5041588;28;20031;-61
2022/05/12 07:31:17;;;;;;;6.50;1.88;;;19.50;64.40;;;;;;5035013;28;20104;-61
2022/05/12 07:33:44;;;;;;;4.28;1.58;;;19.60;64.40;;;;;;5033351;28;20033;-61
2022/05/12 07:36:21;;;;;;;7.47;1.67;;;19.50;64.40;;;;;;5033286;28;20117;-61
2022/05/12 07:38:47;;;;;;;5.70;1.60;;;19.50;64.40;;;;;;5031603;28;20033;-62
2022/05/12 07:41:13;;;;;;;7.13;1.60;;;19.60;64.40;;;;;;5038141;28;20052;-61
2022/05/12 07:43:40;;;;;;;5.60;1.77;;;19.50;64.30;;;;;;5036999;28;20079;-61
2022/05/12 07:46:06;;;;;;;7.07;1.73;;;19.60;64.40;;;;;;5035566;28;20046;-61
2022/05/12 07:48:32;;;;;;;6.20;2.08;;;19.50;64.30;;;;;;5037946;28;20033;-61
2022/05/12 07:50:58;;;;;;;6.30;1.65;;;19.60;64.40;;;;;;5038923;28;20563;-61
2022/05/12 07:53:24;;;;;;;6.38;1.60;;;19.50;64.20;;;;;;5030517;28;20021;-61
2022/05/12 07:55:49;;;;;;;4.95;1.75;;;19.60;64.30;;;;;;5038228;28;20037;-61
2022/05/12 07:58:15;;;;;;;5.07;1.50;;;19.50;64.20;;;;;;5033237;28;20025;-61
2022/05/12 08:00:41;;;;;;;4.22;1.38;;;19.60;64.30;;;;;;5033192;28;20039;-61
2022/05/12 08:03:06;;;;;;;4.80;1.63;;;19.60;64.10;;;;;;5033570;28;20099;-61
2022/05/12 08:05:32;;;;;;;4.18;1.70;;;19.60;64.10;;;;;;5041091;28;20045;-61
2022/05/12 08:07:58;;;;;;;4.55;1.70;;;19.60;64.20;;;;;;5032018;28;20464;-61
2022/05/12 08:10:24;;;;;;;5.20;1.40;;;19.60;64.00;;;;;;5034702;28;20029;-61
2022/05/12 08:12:50;;;;;;;7.10;1.60;;;19.60;64.00;;;;;;5033565;28;20524;-61
2022/05/12 08:15:16;;;;;;;4.68;1.50;;;19.60;64.10;;;;;;5038491;28;20043;-59
2022/05/12 08:17:42;;;;;;;6.30;1.67;;;19.60;64.00;;;;;;5037904;28;20030;-59
2022/05/12 08:20:11;;;;;;;4.28;1.55;;;19.70;64.00;;;;;;5040997;28;20494;-59
2022/05/12 08:22:36;;;;;;;6.53;1.80;;;19.70;63.90;;;;;;5037586;28;20044;-60
2022/05/12 08:25:04;;;;;;;7.43;1.88;;;19.70;64.00;;;;;;5042074;28;20028;-59
2022/05/12 08:27:29;;;;;;;5.72;1.50;;;19.70;63.90;;;;;;5036155;28;20452;-59
2022/05/12 08:29:55;;;;;;;6.10;1.45;;;19.70;63.90;;;;;;5046142;28;20029;-59
2022/05/12 08:32:21;;;;;;;5.57;1.60;;;19.70;63.90;;;;;;5039379;28;20056;-59
2022/05/12 08:34:46;;;;;;;4.80;1.70;;;19.70;64.90;;;;;;5037781;28;20096;-59
2022/05/12 08:37:12;;;;;;;6.53;1.65;;;19.70;64.00;;;;;;5039598;28;20497;-59
2022/05/12 08:39:38;;;;;;;4.75;1.58;;;19.70;64.00;;;;;;5035553;28;20029;-59
2022/05/12 08:42:18;;;;;;;5.35;1.60;;;19.70;64.00;;;;;;5034052;28;20517;-59
2022/05/12 08:44:43;;;;;;;5.78;1.83;;;19.70;63.90;;;;;;5036060;28;20037;-59
2022/05/12 08:47:16;;;;;;;4.38;1.70;;;19.80;63.90;;;;;;5038298;28;20080;-59
2022/05/12 08:49:47;;;;;;;5.93;1.48;;;19.80;63.80;;;;;;5041578;28;20073;-59
2022/05/12 08:52:38;;;;;;;6.68;1.67;;;19.80;63.80;;;;;;5037016;28;20452;-59
2022/05/12 08:55:27;;;;;;;5.00;1.50;;;19.80;63.80;;;;;;5038413;28;20041;-59
2022/05/12 08:58:13;;;;;;;6.18;1.80;;;19.70;63.80;;;;;;5043111;28;20037;-59
2022/05/12 09:00:44;;;;;;;6.43;1.50;;;19.70;63.70;;;;;;5043150;28;20102;-59
2022/05/12 09:03:14;;;;;;;5.22;1.50;;;19.80;63.70;;;;;;5042766;28;20036;-59
2022/05/12 09:05:44;;;;;;;4.63;1.55;;;19.80;63.60;;;;;;5039778;28;20504;-59
2022/05/12 09:08:21;;;;;;;4.53;1.40;;;19.80;63.50;;;;;;5029533;28;20025;-59
2022/05/12 09:10:47;;;;;;;3.90;1.55;;;19.70;63.50;;;;;;5038772;28;20029;-59
2022/05/12 09:13:20;;;;;;;5.47;1.33;;;19.80;63.50;;;;;;5037431;28;20029;-59
2022/05/12 09:16:08;;;;;;;6.50;1.70;;;19.80;63.60;;;;;;5034365;28;20044;-59
2022/05/12 09:18:34;;;;;;;5.32;1.60;;;19.80;63.70;;;;;;5064900;28;20029;-59
2022/05/12 09:21:01;;;;;;;5.25;1.60;;;19.80;63.70;;;;;;5039332;28;20037;-59
2022/05/12 09:23:27;;;;;;;3.70;1.30;;;19.80;63.80;;;;;;5038503;28;20025;-59
2022/05/12 09:25:53;;;;;;;5.63;1.85;;;19.80;64.00;;;;;;5036785;28;20398;-59
2022/05/12 09:28:26;;;;;;;3.30;1.33;;;19.80;63.70;;;;;;5040431;28;20413;-59
2022/05/12 09:30:52;;;;;;;5.20;1.50;;;19.80;63.80;;;;;;5037443;28;20074;-59
2022/05/12 09:33:35;;;;;;;5.68;1.70;;;19.80;63.70;;;;;;5038206;28;20100;-59
2022/05/12 09:36:05;;;;;;;4.28;1.60;;;19.80;63.70;;;;;;5044342;28;20095;-59
2022/05/12 09:38:38;;;;;;;4.18;1.50;;;19.80;63.60;;;;;;5039293;28;20029;-59
2022/05/12 09:41:16;;;;;;;3.58;1.58;;;19.80;63.60;;;;;;5033067;28;20029;-59
2022/05/12 09:43:42;;;;;;;4.68;1.60;;;19.80;63.60;;;;;;5039146;28;20029;-59
2022/05/12 09:46:21;;;;;;;5.30;1.60;;;19.90;63.60;;;;;;5038084;28;20045;-59
2022/05/12 09:48:48;;;;;;;4.10;1.45;;;19.90;63.60;;;;;;5043169;28;20052;-59
2022/05/12 09:51:24;;;;;;;3.90;1.60;;;19.90;63.50;;;;;;5045724;28;20112;-59
2022/05/12 09:53:51;;;;;;;5.40;1.60;;;19.90;63.50;;;;;;5034030;28;20025;-59
2022/05/12 09:56:32;;;;;;;3.67;1.38;;;19.90;63.50;;;;;;5038116;28;20431;-59
2022/05/12 09:59:16;;;;;;;6.15;1.50;;;19.90;63.50;;;;;;5038001;28;20083;-59
2022/05/12 10:01:52;;;;;;;3.97;1.30;;;19.90;63.40;;;;;;5036536;28;20498;-59
2022/05/12 10:10:32;;;;;;;5.50;1.80;;;20.00;63.20;;;;;;5037233;28;20028;-59
2022/05/12 10:13:02;;;;;;;6.78;1.67;;;20.00;63.30;;;;;;5039165;28;20522;-59
2022/05/12 10:15:32;;;;;;;3.60;1.30;;;20.00;63.30;;;;;;5045943;28;20082;-59
2022/05/12 10:18:04;;;;;;;3.25;1.27;;;20.00;63.20;;;;;;5034037;28;20541;-59
2022/05/12 10:20:30;;;;;;;4.93;1.45;;;20.00;63.20;;;;;;5036873;28;20217;-59
2022/05/12 10:23:11;;;;;;;3.72;1.35;;;20.00;63.00;;;;;;5042107;28;20124;-58
2022/05/12 10:25:58;;;;;;;5.57;1.40;;;20.00;63.10;;;;;;5034129;28;20026;-59
2022/05/12 10:28:48;;;;;;;4.18;1.52;;;20.10;63.10;;;;;;5034276;28;20021;-59
2022/05/12 10:31:25;;;;;;;4.00;1.38;;;20.10;63.00;;;;;;5035420;28;20041;-59
2022/05/12 10:34:17;;;;;;;6.75;1.77;;;20.10;63.10;;;;;;5042931;28;20040;-59
2022/05/12 10:37:05;;;;;;;4.65;1.40;;;20.10;63.00;;;;;;5033305;28;20038;-59
2022/05/12 10:39:37;;;;;;;5.70;1.40;;;20.10;62.90;;;;;;5034208;28;20033;-59
2022/05/12 10:42:15;;;;;;;3.33;1.23;;;20.10;62.90;;;;;;5034191;28;20021;-59
2022/05/12 10:44:47;;;;;;;4.60;1.70;;;20.10;62.80;;;;;;5035996;28;20069;-59
2022/05/12 10:47:35;;;;;;;5.75;1.50;;;20.20;62.60;;;;;;5037013;28;20036;-59
2022/05/12 10:50:20;;;;;;;4.47;1.50;;;20.20;62.80;;;;;;5039318;28;20519;-59
2022/05/12 10:52:59;;;;;;;4.10;1.60;;;20.20;62.70;;;;;;5040262;28;20029;-59
2022/05/12 10:55:41;;;;;;;3.05;1.40;;;20.20;62.70;;;;;;5037020;28;20025;-59
2022/05/12 10:58:22;;;;;;;3.53;1.52;;;20.20;62.80;;;;;;5037205;28;20462;-59
2022/05/12 11:01:17;;;;;;;3.38;1.30;;;20.20;62.70;;;;;;5030341;28;20025;-59
2022/05/12 11:04:01;;;;;;;5.72;1.50;;;20.20;62.60;;;;;;5035341;28;20025;-59
2022/05/12 11:06:34;;;;;;;4.13;1.40;;;20.30;62.60;;;;;;5033703;28;20029;-59
2022/05/12 11:09:06;;;;;;;4.32;1.40;;;20.30;62.60;;;;;;5034648;28;20365;-59
2022/05/12 11:11:39;;;;;;;4.15;1.70;;;20.30;62.50;;;;;;5036254;28;20029;-59
2022/05/12 11:14:23;;;;;;;3.88;1.33;;;20.30;62.50;;;;;;5038275;28;20166;-59
2022/05/12 11:17:14;;;;;;;4.18;1.50;;;20.30;62.50;;;;;;5036859;28;20518;-59
2022/05/12 11:19:43;;;;;;;3.20;1.33;;;20.30;62.50;;;;;;5031274;28;20111;-59
2022/05/12 11:22:33;;;;;;;4.30;1.35;;;20.30;62.30;;;;;;5034053;28;20030;-59
2022/05/12 11:25:20;;;;;;;4.10;1.40;;;20.30;62.30;;;;;;5021331;28;20631;-59
2022/05/12 11:29:41;;;;;;;4.47;1.40;;;20.30;62.50;;;;;;5002072;28;20041;-59
2022/05/12 11:30:45;;;;;;;4.57;1.50;;;20.40;62.50;;;;;;5037128;28;20042;-59
2022/05/12 11:33:23;;;;;;;3.55;1.52;;;20.40;62.40;;;;;;5024723;28;20037;-59
2022/05/12 11:35:50;;;;;;;4.45;1.40;;;20.40;62.30;;;;;;4984592;28;20543;-59
2022/05/12 11:38:43;;;;;;;4.88;1.48;;;20.40;62.30;;;;;;4996847;28;20054;-59
2022/05/12 11:41:24;;;;;;;3.50;1.15;;;20.40;62.20;;;;;;5014776;28;20029;-59
2022/05/12 11:46:57;;;;;;;4.45;1.38;;;20.50;62.00;;;;;;5031809;28;20044;-59
2022/05/12 11:49:40;;;;;;;3.95;1.50;;;20.50;62.00;;;;;;5037027;28;20054;-59
2022/05/12 11:52:10;;;;;;;3.17;1.27;;;20.50;62.00;;;;;;5024504;28;20038;-59
2022/05/12 11:54:56;;;;;;;4.80;1.55;;;20.50;61.90;;;;;;5032133;28;20081;-59
2022/05/12 11:57:28;;;;;;;1.95;1.27;;;20.50;61.90;;;;;;5048589;28;20047;-59
2022/05/12 11:59:57;;;;;;;4.20;1.30;;;20.50;61.90;;;;;;5037177;28;20053;-59
2022/05/12 12:02:29;;;;;;;4.75;1.40;;;20.50;61.90;;;;;;5046165;28;20043;-59
2022/05/12 12:04:56;;;;;;;5.07;1.70;;;20.60;62.00;;;;;;5043439;28;20039;-59
2022/05/12 12:07:27;;;;;;;4.50;1.50;;;20.60;62.00;;;;;;5036779;28;20037;-59
2022/05/12 12:09:55;;;;;;;3.58;1.40;;;20.60;61.90;;;;;;5040040;28;20025;-60
2022/05/12 12:13:11;;;;;;;5.57;1.58;;;20.60;61.80;;;;;;5047127;28;20029;-59
2022/05/12 12:15:38;;;;;;;;;;;20.60;61.70;;;;;;5024257;28;20465;-59
2022/05/12 12:18:18;;;;;;;7.43;1.40;;;20.70;62.10;;;;;;5028548;28;20377;-59
2022/05/12 12:20:49;;;;;;;9.85;1.85;;;20.70;62.30;;;;;;5024756;28;20021;-59
2022/05/12 12:23:22;;;;;;;6.57;1.70;;;20.70;62.30;;;;;;5028938;28;20532;-59
2022/05/12 12:25:58;;;;;;;5.35;1.50;;;20.70;62.40;;;;;;5006132;28;20029;-59
2022/05/12 12:28:55;;;;;;;6.40;1.77;;;20.70;62.30;;;;;;5008725;28;20034;-59
2022/05/12 12:31:48;;;;;;;6.70;1.70;;;20.70;62.40;;;;;;5008646;28;20049;-60
2022/05/12 12:34:17;;;;;;;6.47;1.70;;;20.70;62.50;;;;;;5021931;28;20124;-59
2022/05/12 12:36:49;;;;;;;13.20;2.58;;;20.70;62.30;;;;;;5006226;28;20048;-60
2022/05/12 12:39:42;;;;;;;8.18;1.70;;;20.70;63.20;;;;;;5027757;28;20521;-59
2022/05/12 12:42:34;;;;;;;7.68;2.00;;;20.80;63.10;;;;;;4967955;28;20073;-59
2022/05/12 12:45:06;;;;;;;8.77;1.70;;;20.80;62.90;;;;;;4970437;28;20050;-59
2022/05/12 12:47:59;;;;;;;6.13;1.73;;;20.80;62.80;;;;;;4965522;28;20078;-59
2022/05/12 12:50:52;;;;;;;9.82;1.92;;;20.90;62.90;;;;;;4971629;28;20129;-59
2022/05/12 12:56:30;;;;;;;10.35;1.70;;;20.90;62.60;;;;;;4980959;28;20042;-60
2022/05/12 12:56:32;;;;;;;11.48;2.40;;;21.00;62.50;;;;;;4983197;28;20057;-59
2022/05/12 12:59:09;;;;;;;16.75;2.33;;;20.90;62.30;;;;;;4963860;28;20039;-59
2022/05/12 13:01:51;;;;;;;10.95;2.22;;;21.00;62.40;;;;;;4982251;28;20038;-60
2022/05/12 13:04:36;;;;;;;8.43;2.10;;;21.00;62.30;;;;;;4984416;28;20026;-59
2022/05/12 13:07:04;;;;;;;10.80;2.67;;;21.10;62.10;;;;;;4978938;28;20467;-60
2022/05/12 13:09:42;;;;;;;12.43;2.20;;;21.10;63.30;;;;;;4982041;28;20273;-60
2022/05/12 13:12:18;;;;;;;22.70;3.40;;;21.10;62.10;;;;;;4985408;28;20439;-60
2022/05/12 13:14:45;;;;;;;13.77;2.22;;;21.00;61.10;;;;;;4980973;28;20548;-59
2022/05/12 13:17:19;;;;;;;11.48;2.30;;;20.90;60.60;;;;;;4983533;28;20523;-59
2022/05/12 13:19:44;;;;;;;12.57;2.17;;;21.00;60.90;;;;;;5032922;28;20112;-60
2022/05/12 13:22:10;;;;;;;11.50;2.08;;;21.00;60.80;;;;;;5036314;28;20120;-60